EGPK

Glasgow Prestwick Airport

Glasgow, United Kingdom
METAR EGPK 152020Z 17005KT 150V230 9999 FEW015 SCT022 17/16 Q1012
Observed Flight Rules
Jul-15 @ 20:20 UTC (29 minutes ago) Visual Flight Rules
Wind Visibility Clouds
170° at 5 knots 10,000+ meters
  • Few at 1,500' AGL
  • Scattered at 2,200' AGL
Temperatures Readings
Current 17°C / 63°F
Dewpoint 16°C / 61°F
Humidity 94%
Altimeter 29.88" Hg
Pressure 1012 hPa
Elevation 20
METAR EGPK 152020Z 17005KT 150V230 9999 FEW015 SCT022 17/16 Q1012
Observed Flight Rules
Jul-15 @ 20:20 UTC
(29 minutes ago)
VFR
Wind Visibility
170° at 5 knots 10,000+ meters
Clouds
  • Few at 1,500' AGL
  • Scattered at 2,200' AGL
Temperature Dewpoint
17°C / 63°F 16°C / 61°F
Humidity Altimeter Pressure
94% 29.88" Hg 1012 hPa